createdAt,value
2022-11-22T00:01:19.920Z,18.38
2022-11-22T00:03:49.464Z,19.75
2022-11-22T00:06:17.690Z,18.52
2022-11-22T00:08:45.830Z,18.20
2022-11-22T00:11:14.111Z,17.70
2022-11-22T00:13:42.225Z,20.27
2022-11-22T00:16:10.586Z,20.55
2022-11-22T00:18:38.790Z,23.02
2022-11-22T00:21:09.507Z,20.70
2022-11-22T00:23:37.868Z,16.67
2022-11-22T00:26:07.299Z,22.23
2022-11-22T00:28:35.424Z,20.73
2022-11-22T00:31:03.828Z,17.25
2022-11-22T00:33:32.444Z,18.58
2022-11-22T00:36:00.588Z,18.27
2022-11-22T00:38:30.472Z,16.20
2022-11-22T00:40:58.894Z,15.85
2022-11-22T00:43:27.210Z,18.05
2022-11-22T00:45:55.404Z,20.25
2022-11-22T00:48:23.781Z,15.20
2022-11-22T00:50:51.829Z,20.08
2022-11-22T00:53:20.237Z,16.30
2022-11-22T00:55:50.692Z,16.95
2022-11-22T00:58:18.878Z,19.08
2022-11-22T01:00:47.409Z,17.58
2022-11-22T01:03:17.112Z,15.48
2022-11-22T01:05:45.233Z,12.75
2022-11-22T01:08:13.407Z,16.50
2022-11-22T01:10:41.935Z,13.88
2022-11-22T01:13:13.073Z,14.85
2022-11-22T01:15:41.155Z,17.70
2022-11-22T01:18:09.845Z,17.92
2022-11-22T01:20:37.978Z,18.02
2022-11-22T01:23:06.083Z,14.20
2022-11-22T01:25:34.742Z,12.45
2022-11-22T01:28:02.921Z,14.00
2022-11-22T01:30:32.394Z,14.93
2022-11-22T01:33:00.859Z,13.82
2022-11-22T01:35:28.938Z,14.77
2022-11-22T01:37:57.028Z,16.65
2022-11-22T01:40:25.602Z,15.45
2022-11-22T01:42:55.888Z,17.15
2022-11-22T01:45:56.688Z,18.02
2022-11-22T01:48:37.864Z,17.15
2022-11-22T01:51:10.732Z,15.30
2022-11-22T01:53:41.116Z,11.10
2022-11-22T01:56:15.805Z,12.98
2022-11-22T01:58:46.367Z,12.63
2022-11-22T02:01:16.666Z,17.60
2022-11-22T02:03:48.096Z,15.02
2022-11-22T02:06:17.478Z,12.43
2022-11-22T02:08:53.977Z,13.52
2022-11-22T02:11:23.378Z,14.95
2022-11-22T02:13:53.627Z,12.48
2022-11-22T02:16:24.056Z,8.70
2022-11-22T02:18:52.486Z,17.75
2022-11-22T02:21:20.753Z,13.07
2022-11-22T02:23:57.606Z,12.75
2022-11-22T02:26:29.560Z,13.50
2022-11-22T02:29:03.087Z,15.70
2022-11-22T02:31:39.589Z,10.88
2022-11-22T02:34:08.368Z,13.85
2022-11-22T02:36:40.475Z,9.43
2022-11-22T02:39:10.925Z,13.02
2022-11-22T02:41:41.452Z,10.13
2022-11-22T02:44:12.031Z,9.95
2022-11-22T02:46:48.869Z,11.77
2022-11-22T02:49:21.800Z,11.05
2022-11-22T02:51:50.169Z,14.25
2022-11-22T02:54:18.783Z,11.70
2022-11-22T02:56:48.620Z,11.23
2022-11-22T02:59:16.838Z,10.55
2022-11-22T03:01:46.618Z,10.02
2022-11-22T03:04:25.099Z,9.32
2022-11-22T03:06:55.347Z,11.60
2022-11-22T03:09:23.565Z,9.77
2022-11-22T03:11:54.062Z,13.25
2022-11-22T03:14:22.680Z,15.75
2022-11-22T03:16:51.010Z,12.55
2022-11-22T03:19:19.542Z,11.07
2022-11-22T03:21:47.776Z,16.35
2022-11-22T03:24:16.057Z,13.60
2022-11-22T03:26:49.323Z,10.93
2022-11-22T03:29:19.181Z,16.60
2022-11-22T03:31:47.444Z,16.67
2022-11-22T03:34:16.757Z,14.63
2022-11-22T03:36:45.025Z,14.68
2022-11-22T03:39:13.141Z,15.35
2022-11-22T03:41:41.587Z,11.82
2022-11-22T03:44:09.692Z,16.13
2022-11-22T03:46:39.218Z,14.77
2022-11-22T03:49:07.500Z,13.50
2022-11-22T03:51:35.566Z,17.20
2022-11-22T03:54:03.793Z,12.18
2022-11-22T03:56:32.218Z,11.52
2022-11-22T03:59:00.345Z,13.43
2022-11-22T04:01:28.608Z,17.75
2022-11-22T04:03:58.694Z,15.88
2022-11-22T04:06:26.896Z,13.18
2022-11-22T04:08:55.031Z,12.73
2022-11-22T04:11:23.410Z,14.65
2022-11-22T04:14:08.710Z,10.95
2022-11-22T04:16:37.168Z,18.30
2022-11-22T04:19:06.638Z,11.02
2022-11-22T04:21:36.756Z,14.90
2022-11-22T04:24:24.952Z,11.90
2022-11-22T04:26:53.726Z,13.88
2022-11-22T04:29:22.782Z,9.32
2022-11-22T04:32:09.845Z,15.07
2022-11-22T04:34:39.482Z,10.50
2022-11-22T04:37:07.801Z,9.68
2022-11-22T04:39:36.199Z,10.70
2022-11-22T04:42:21.816Z,12.02
2022-11-22T04:44:50.370Z,13.55
2022-11-22T04:47:33.795Z,11.23
2022-11-22T04:50:03.955Z,14.88
2022-11-22T04:52:49.681Z,15.63
2022-11-22T04:55:18.418Z,14.50
2022-11-22T04:57:46.503Z,11.65
2022-11-22T05:00:15.199Z,10.13
2022-11-22T05:02:43.810Z,11.43
2022-11-22T05:05:13.325Z,11.73
2022-11-22T05:07:41.723Z,13.38
2022-11-22T05:10:12.312Z,17.55
2022-11-22T05:12:42.625Z,11.63
2022-11-22T05:15:11.851Z,11.25
2022-11-22T05:17:40.517Z,11.20
2022-11-22T05:20:10.421Z,9.82
2022-11-22T05:22:57.395Z,13.05
2022-11-22T05:25:25.963Z,15.02
2022-11-22T05:27:57.040Z,12.88
2022-11-22T05:30:25.645Z,9.23
2022-11-22T05:32:53.825Z,14.70
2022-11-22T05:35:22.049Z,11.15
2022-11-22T05:37:52.242Z,10.88
2022-11-22T05:40:20.330Z,11.32
2022-11-22T05:42:48.455Z,11.85
2022-11-22T05:45:16.812Z,7.32
2022-11-22T05:47:44.974Z,13.48
2022-11-22T05:50:13.660Z,13.90
2022-11-22T05:52:42.411Z,9.10
2022-11-22T05:55:11.951Z,12.90
2022-11-22T05:57:40.091Z,10.68
2022-11-22T06:00:09.545Z,9.32
2022-11-22T06:02:37.731Z,11.20
2022-11-22T06:05:06.361Z,11.20
2022-11-22T06:07:35.100Z,10.90
2022-11-22T06:10:03.321Z,13.00
2022-11-22T06:12:32.824Z,10.60
2022-11-22T06:15:01.608Z,15.52
2022-11-22T06:17:29.737Z,14.52
2022-11-22T06:20:02.695Z,12.80
2022-11-22T06:22:34.124Z,13.68
2022-11-22T06:25:02.320Z,14.63
2022-11-22T06:27:30.537Z,10.25
2022-11-22T06:30:00.207Z,10.15
2022-11-22T06:32:28.364Z,10.27
2022-11-22T06:34:56.528Z,10.75
2022-11-22T06:37:24.925Z,13.57
2022-11-22T06:39:53.299Z,9.13
2022-11-22T06:42:21.375Z,12.30
2022-11-22T06:44:49.653Z,11.18
2022-11-22T06:47:19.425Z,11.88
2022-11-22T06:49:47.496Z,9.07
2022-11-22T06:52:16.020Z,13.23
2022-11-22T06:54:44.167Z,12.98
2022-11-22T06:57:14.754Z,11.77
2022-11-22T06:59:43.120Z,10.70
2022-11-22T07:02:13.133Z,14.38
2022-11-22T07:05:02.341Z,12.80
2022-11-22T07:07:31.422Z,13.13
2022-11-22T07:09:59.601Z,13.93
2022-11-22T07:12:27.851Z,17.13
2022-11-22T07:14:56.466Z,16.13
2022-11-22T07:17:24.713Z,10.35
2022-11-22T07:19:54.162Z,13.27
2022-11-22T07:22:22.754Z,14.10
2022-11-22T07:24:50.838Z,10.15
2022-11-22T07:27:18.969Z,9.02
2022-11-22T07:29:47.382Z,11.18
2022-11-22T07:32:15.456Z,11.65
2022-11-22T07:34:43.561Z,10.82
2022-11-22T07:37:13.235Z,11.15
2022-11-22T07:39:41.324Z,12.48
2022-11-22T07:42:09.514Z,10.55
2022-11-22T07:44:37.761Z,11.32
2022-11-22T07:47:05.977Z,13.65
2022-11-22T07:49:34.091Z,10.23
2022-11-22T07:52:03.601Z,12.77
2022-11-22T07:54:33.115Z,14.65
2022-11-22T07:57:01.221Z,9.68
2022-11-22T07:59:29.823Z,8.82
2022-11-22T08:01:58.401Z,10.00
2022-11-22T08:04:26.525Z,13.25
2022-11-22T08:06:54.852Z,10.50
2022-11-22T08:09:23.086Z,12.95
2022-11-22T08:11:52.765Z,7.57
2022-11-22T08:14:21.172Z,12.13
2022-11-22T08:16:49.379Z,8.95
2022-11-22T08:19:18.059Z,11.38
2022-11-22T08:21:46.763Z,11.77
2022-11-22T08:24:15.609Z,9.68
2022-11-22T08:26:44.148Z,10.25
2022-11-22T08:29:14.800Z,10.13
2022-11-22T08:31:43.117Z,12.93
2022-11-22T08:34:11.408Z,12.05
2022-11-22T08:36:40.030Z,8.98
2022-11-22T08:39:08.334Z,10.77
2022-11-22T08:41:36.762Z,9.63
2022-11-22T08:44:05.278Z,8.80
2022-11-22T08:46:34.770Z,8.57
2022-11-22T08:49:03.977Z,9.25
2022-11-22T08:51:32.659Z,13.85
2022-11-22T08:54:00.727Z,12.43
2022-11-22T08:56:29.193Z,15.30
2022-11-22T08:58:57.533Z,9.38
2022-11-22T09:01:25.913Z,9.07
2022-11-22T09:03:55.537Z,9.20
2022-11-22T09:12:00.406Z,11.65
2022-11-22T09:14:28.885Z,9.95
2022-11-22T09:16:57.037Z,7.97
2022-11-22T09:19:26.903Z,10.38
2022-11-22T09:21:55.423Z,9.02
2022-11-22T09:24:23.563Z,8.40
2022-11-22T09:26:51.891Z,9.85
2022-11-22T09:29:20.149Z,7.63
2022-11-22T09:31:48.331Z,10.90
2022-11-22T09:34:16.593Z,11.63
2022-11-22T09:36:46.380Z,7.07
2022-11-22T09:39:14.529Z,7.20
2022-11-22T09:42:10.806Z,8.68
2022-11-22T09:44:59.980Z,10.82
2022-11-22T09:47:38.002Z,10.88
2022-11-22T09:50:17.326Z,6.15
2022-11-22T09:52:50.945Z,9.15
2022-11-22T09:58:02.340Z,6.28
2022-11-22T10:00:31.257Z,6.35
2022-11-22T10:03:06.867Z,5.90
2022-11-22T10:05:44.251Z,9.50
2022-11-22T10:08:31.005Z,6.50
2022-11-22T10:11:00.997Z,6.53
2022-11-22T10:13:35.481Z,7.95
2022-11-22T10:16:11.890Z,6.50
2022-11-22T10:18:43.590Z,7.15
2022-11-22T10:21:14.655Z,5.95
2022-11-22T10:23:46.594Z,4.93
2022-11-22T10:26:22.670Z,7.97
2022-11-22T10:29:00.154Z,8.30
2022-11-22T10:31:36.897Z,4.82
2022-11-22T10:34:11.249Z,5.43
2022-11-22T10:36:50.357Z,5.72
2022-11-22T10:39:38.494Z,5.93
2022-11-22T10:42:20.805Z,3.80
2022-11-22T10:44:56.866Z,6.80
2022-11-22T10:47:40.894Z,6.63
2022-11-22T10:52:51.141Z,4.78
2022-11-22T10:55:34.749Z,5.18
2022-11-22T10:58:09.909Z,3.45
2022-11-22T11:00:43.393Z,4.75
2022-11-22T11:03:21.665Z,4.47
2022-11-22T11:06:22.709Z,3.92
2022-11-22T11:11:36.130Z,3.92
2022-11-22T11:14:09.778Z,4.05
2022-11-22T11:19:17.658Z,3.85
2022-11-22T11:21:46.379Z,4.20
2022-11-22T11:24:16.903Z,3.63
2022-11-22T11:26:55.451Z,3.95
2022-11-22T11:29:39.174Z,6.10
2022-11-22T11:32:10.364Z,3.75
2022-11-22T11:34:40.105Z,3.03
2022-11-22T11:37:22.649Z,2.40
2022-11-22T11:39:50.864Z,3.30
2022-11-22T11:42:26.480Z,5.07
2022-11-22T11:44:55.250Z,3.20
2022-11-22T11:47:35.405Z,4.03
2022-11-22T11:50:03.531Z,3.88
2022-11-22T11:52:32.334Z,2.97
2022-11-22T11:55:02.872Z,4.25
2022-11-22T11:57:36.067Z,3.97
2022-11-22T12:00:07.413Z,3.17
2022-11-22T12:02:40.839Z,4.10
2022-11-22T12:05:27.682Z,3.90
2022-11-22T12:07:56.352Z,4.05
2022-11-22T12:10:40.533Z,4.03
2022-11-22T12:13:19.156Z,4.60
2022-11-22T12:15:57.261Z,3.05
2022-11-22T12:18:42.813Z,5.03
2022-11-22T12:21:20.175Z,3.97
2022-11-22T12:23:53.016Z,3.50
2022-11-22T12:26:22.044Z,4.77
2022-11-22T12:28:52.067Z,5.32
2022-11-22T12:31:31.002Z,2.88
2022-11-22T12:34:03.842Z,2.80
2022-11-22T12:36:43.111Z,3.80
2022-11-22T12:39:17.324Z,4.40
2022-11-22T12:41:47.921Z,2.30
2022-11-22T12:44:19.805Z,4.93
2022-11-22T12:46:51.989Z,5.70
2022-11-22T12:49:34.044Z,3.97
2022-11-22T12:52:13.000Z,3.80
2022-11-22T12:54:46.753Z,5.05
2022-11-22T12:57:20.215Z,6.30
2022-11-22T12:59:58.690Z,5.35
2022-11-22T13:02:34.764Z,5.55
2022-11-22T13:05:07.062Z,5.68
2022-11-22T13:07:48.613Z,5.82
2022-11-22T13:10:32.581Z,3.20
2022-11-22T13:15:34.454Z,4.78
2022-11-22T13:18:02.914Z,3.55
2022-11-22T13:20:42.695Z,5.40
2022-11-22T13:23:26.796Z,4.38
2022-11-22T13:26:10.365Z,3.25
2022-11-22T13:28:42.677Z,4.78
2022-11-22T13:31:20.776Z,3.75
2022-11-22T13:33:59.955Z,5.68
2022-11-22T13:36:46.498Z,4.88
2022-11-22T13:39:20.000Z,2.92
2022-11-22T13:42:05.427Z,4.30
2022-11-22T13:44:49.892Z,3.92
2022-11-22T13:47:53.258Z,3.78
2022-11-22T13:50:57.849Z,4.43
2022-11-22T13:55:59.152Z,6.90
2022-11-22T13:59:04.587Z,3.40
2022-11-22T14:01:58.291Z,4.18
2022-11-22T14:04:44.935Z,4.57
2022-11-22T14:07:35.283Z,4.32
2022-11-22T14:10:06.032Z,6.35
2022-11-22T14:13:05.400Z,4.78
2022-11-22T14:15:55.595Z,4.82
2022-11-22T14:18:47.047Z,4.22
2022-11-22T14:21:25.985Z,5.35
2022-11-22T14:24:07.030Z,7.70
2022-11-22T14:26:42.980Z,6.10
2022-11-22T14:29:54.762Z,6.50
2022-11-22T14:32:25.108Z,4.20
2022-11-22T14:35:29.829Z,5.32
2022-11-22T14:38:06.671Z,4.57
2022-11-22T14:40:37.737Z,4.50
2022-11-22T14:43:29.182Z,6.20
2022-11-22T14:46:02.525Z,5.28
2022-11-22T14:48:34.877Z,4.40
2022-11-22T14:51:16.273Z,5.70
2022-11-22T14:53:52.308Z,6.97
2022-11-22T14:56:26.439Z,5.85
2022-11-22T14:59:07.007Z,6.00
2022-11-22T15:01:56.808Z,7.20
2022-11-22T15:09:18.388Z,7.72
2022-11-22T15:09:19.457Z,5.03
2022-11-22T15:11:14.513Z,4.60
2022-11-22T15:14:05.867Z,5.25
2022-11-22T15:57:27.914Z,14.52
2022-11-22T15:59:56.849Z,13.32
2022-11-22T16:02:30.264Z,14.60
2022-11-22T16:06:05.313Z,11.20
2022-11-22T16:07:53.702Z,13.95
2022-11-22T16:10:25.341Z,10.75
2022-11-22T16:12:55.583Z,11.85
2022-11-22T16:15:36.516Z,17.33
2022-11-22T16:18:15.714Z,15.43
2022-11-22T16:20:59.149Z,12.10
2022-11-22T16:23:28.430Z,15.13
2022-11-22T16:26:00.117Z,14.30
2022-11-22T16:28:34.424Z,12.48
2022-11-22T16:31:06.553Z,16.60
2022-11-22T16:33:36.215Z,13.68
2022-11-22T16:36:07.028Z,12.77
2022-11-22T16:38:35.125Z,13.50
2022-11-22T16:41:03.987Z,18.20
2022-11-22T16:43:36.053Z,14.25
2022-11-22T16:46:05.384Z,12.40
2022-11-22T16:48:34.970Z,17.42
2022-11-22T16:51:07.967Z,12.40
2022-11-22T16:53:41.723Z,13.65
2022-11-22T16:56:14.307Z,13.57
2022-11-22T16:58:42.467Z,11.65
2022-11-22T17:01:12.916Z,14.15
2022-11-22T17:03:43.522Z,16.92
2022-11-22T17:06:18.656Z,11.77
2022-11-22T17:08:47.586Z,14.15
2022-11-22T17:11:17.787Z,13.82
2022-11-22T17:13:46.807Z,13.32
2022-11-22T17:16:17.832Z,12.82
2022-11-22T17:18:48.591Z,11.30
2022-11-22T17:21:22.550Z,11.32
2022-11-22T17:23:51.078Z,13.88
2022-11-22T17:26:19.454Z,15.23
2022-11-22T17:28:47.772Z,13.05
2022-11-22T17:31:18.801Z,12.10
2022-11-22T17:33:51.965Z,11.27
2022-11-22T17:36:24.291Z,11.45
2022-11-22T17:38:52.494Z,9.20
2022-11-22T17:41:20.818Z,10.27
2022-11-22T17:43:48.918Z,14.10
2022-11-22T17:46:17.171Z,12.77
2022-11-22T17:48:45.435Z,14.18
2022-11-22T17:51:15.005Z,20.15
2022-11-22T17:53:45.890Z,13.70
2022-11-22T17:56:14.339Z,13.35
2022-11-22T17:58:43.059Z,13.73
2022-11-22T18:01:13.436Z,14.48
2022-11-22T18:03:42.789Z,12.43
2022-11-22T18:06:12.824Z,15.05
2022-11-22T18:08:46.578Z,12.02
2022-11-22T18:11:16.443Z,19.85
2022-11-22T18:13:45.447Z,12.38
2022-11-22T18:16:15.744Z,12.27
2022-11-22T18:18:59.535Z,15.02
2022-11-22T18:21:30.402Z,17.02
2022-11-22T18:24:00.386Z,12.60
2022-11-22T18:26:44.419Z,13.68
2022-11-22T18:32:02.279Z,14.63
2022-11-22T18:34:30.906Z,15.25
2022-11-22T18:37:03.922Z,13.10
2022-11-22T18:39:36.836Z,15.73
2022-11-22T18:42:05.887Z,14.23
2022-11-22T18:44:34.245Z,11.75
2022-11-22T18:47:02.861Z,12.93
2022-11-22T18:49:31.349Z,16.17
2022-11-22T18:51:59.950Z,12.02
2022-11-22T18:54:29.552Z,11.32
2022-11-22T19:01:01.447Z,19.25
2022-11-22T19:03:32.003Z,14.60
2022-11-22T19:06:00.698Z,12.95
2022-11-22T19:08:31.961Z,14.38
2022-11-22T19:11:00.492Z,10.00
2022-11-22T19:13:29.846Z,15.02
2022-11-22T19:16:06.895Z,11.85
2022-11-22T19:18:42.918Z,13.30
2022-11-22T19:39:33.500Z,13.52
2022-11-22T19:42:01.789Z,15.15
2022-11-22T19:44:30.738Z,13.23
2022-11-22T19:46:59.223Z,10.48
2022-11-22T19:49:27.709Z,15.30
2022-11-22T19:51:55.877Z,14.85
2022-11-22T19:54:24.256Z,16.52
2022-11-22T19:56:53.860Z,15.50
2022-11-22T19:59:22.098Z,15.98
2022-11-22T20:01:50.448Z,14.63
2022-11-22T20:04:18.671Z,13.75
2022-11-22T20:06:50.172Z,12.52
2022-11-22T20:09:18.947Z,16.10
2022-11-22T20:11:47.173Z,17.70
2022-11-22T20:14:17.117Z,14.52
2022-11-22T20:16:45.904Z,16.25
2022-11-22T20:19:15.492Z,15.98
2022-11-22T20:21:43.706Z,15.00
2022-11-22T20:24:13.352Z,12.80
2022-11-22T20:26:42.598Z,17.77
2022-11-22T20:29:15.257Z,14.57
2022-11-22T20:31:44.940Z,9.93
2022-11-22T20:34:15.082Z,11.80
2022-11-22T20:36:43.692Z,9.48
2022-11-22T20:39:12.004Z,16.50
2022-11-22T20:41:41.136Z,13.20
2022-11-22T20:44:13.490Z,12.90
2022-11-22T20:46:42.652Z,14.65
2022-11-22T20:49:12.510Z,13.73
2022-11-22T20:51:41.700Z,15.52
2022-11-22T20:54:10.667Z,15.40
2022-11-22T20:56:39.329Z,15.02
2022-11-22T20:59:07.655Z,13.68
2022-11-22T21:01:36.106Z,12.70
2022-11-22T21:04:04.680Z,14.18
2022-11-22T21:06:35.201Z,14.48
2022-11-22T21:09:03.998Z,13.70
2022-11-22T21:11:32.262Z,14.77
2022-11-22T21:14:00.757Z,12.77
2022-11-22T21:16:30.222Z,15.80
2022-11-22T21:19:01.478Z,13.55
2022-11-22T21:21:30.540Z,13.20
2022-11-22T21:24:01.730Z,12.70
2022-11-22T21:26:30.812Z,17.35
2022-11-22T21:28:59.577Z,13.57
2022-11-22T21:31:29.243Z,16.98
2022-11-22T21:33:57.810Z,15.70
2022-11-22T21:36:26.335Z,16.55
2022-11-22T21:38:54.551Z,14.45
2022-11-22T21:41:39.257Z,16.25
2022-11-22T21:44:08.548Z,16.77
2022-11-22T21:46:36.758Z,16.92
2022-11-22T21:49:04.851Z,16.60
2022-11-22T21:51:33.322Z,11.95
2022-11-22T21:54:02.892Z,14.98
2022-11-22T21:56:32.825Z,12.48
2022-11-22T21:59:01.231Z,16.50
2022-11-22T22:01:30.244Z,14.02
2022-11-22T22:03:58.646Z,13.85
2022-11-22T22:06:26.863Z,12.50
2022-11-22T22:08:55.279Z,16.38
2022-11-22T22:11:23.998Z,9.63
2022-11-22T22:13:55.709Z,12.10
2022-11-22T22:16:26.159Z,13.20
2022-11-22T22:18:55.044Z,11.82
2022-11-22T22:21:23.492Z,14.32
2022-11-22T22:23:51.888Z,12.43
2022-11-22T22:26:20.329Z,15.73
2022-11-22T22:28:48.423Z,13.20
2022-11-22T22:31:21.919Z,10.10
2022-11-22T22:33:51.671Z,10.27
2022-11-22T22:36:20.186Z,14.38
2022-11-22T22:38:49.331Z,12.10
2022-11-22T22:41:17.951Z,15.57
2022-11-22T22:43:48.886Z,14.50
2022-11-22T22:46:20.549Z,15.52
2022-11-22T22:48:49.598Z,13.15
2022-11-22T22:51:19.503Z,13.98
2022-11-22T22:53:48.622Z,14.93
2022-11-22T22:56:18.449Z,12.10
2022-11-22T22:58:47.043Z,11.52
2022-11-22T23:01:19.020Z,18.55
2022-11-22T23:03:49.521Z,14.07
2022-11-22T23:06:18.549Z,12.80
2022-11-22T23:08:48.346Z,17.60
2022-11-22T23:11:19.107Z,13.48
2022-11-22T23:13:47.311Z,18.20
2022-11-22T23:16:16.307Z,13.68
2022-11-22T23:18:46.474Z,15.38
2022-11-22T23:21:16.137Z,14.85
2022-11-22T23:23:44.499Z,11.48
2022-11-22T23:26:13.983Z,10.32
2022-11-22T23:28:42.147Z,15.23
2022-11-22T23:31:12.408Z,16.48
2022-11-22T23:33:41.735Z,15.63
2022-11-22T23:36:13.632Z,14.38
2022-11-22T23:38:42.249Z,16.48
2022-11-22T23:41:12.043Z,15.95
2022-11-22T23:43:40.259Z,13.88
2022-11-22T23:46:16.038Z,15.68
2022-11-22T23:48:44.923Z,13.32
2022-11-22T23:51:15.834Z,22.23
2022-11-22T23:53:43.965Z,15.93
2022-11-22T23:56:17.961Z,14.90
2022-11-22T23:58:49.801Z,15.18
